Time;durP1;ratioP1;P1;durP2;ratioP2;P2;SDS_P1;SDS_P2;PMS_P1;PMS_P2;Temp;Humidity;BMP_temperature;BMP_pressure;BME280_temperature;BME280_humidity;BME280_pressure;Samples;Min_cycle;Max_cycle;Signal;HPM_P1;HPM_P2
2022/12/18 00:00:44;;;;;;;19.48;12.68;;;;;;;4.56;100.00;101336.50;5001547;28;20058;-78
2022/12/18 00:03:10;;;;;;;21.35;13.05;;;;;;;5.04;100.00;101404.25;4998895;28;20091;-76
2022/12/18 00:05:36;;;;;;;19.50;12.77;;;;;;;5.16;100.00;101435.03;5004006;28;20686;-76
2022/12/18 00:08:02;;;;;;;20.65;12.77;;;;;;;5.26;100.00;101441.47;4987035;28;20068;-74
2022/12/18 00:10:28;;;;;;;17.40;12.65;;;;;;;4.47;100.00;101286.75;5000275;28;20054;-76
2022/12/18 00:12:54;;;;;;;21.80;14.15;;;;;;;5.29;100.00;101446.78;5001648;28;20053;-75
2022/12/18 00:15:20;;;;;;;24.38;13.65;;;;;;;5.05;100.00;101387.78;5002285;28;20511;-76
2022/12/18 00:17:45;;;;;;;24.40;13.55;;;;;;;5.18;100.00;101417.78;5003441;28;20477;-75
2022/12/18 00:20:11;;;;;;;21.70;11.45;;;;;;;5.39;100.00;101450.66;5003307;28;20486;-76
2022/12/18 00:22:36;;;;;;;19.80;11.63;;;;;;;5.38;100.00;101454.94;5000781;28;20042;-76
2022/12/18 00:25:02;;;;;;;28.48;13.18;;;;;;;5.11;100.00;101404.50;5000254;28;20128;-76
2022/12/18 00:27:27;;;;;;;24.55;13.15;;;;;;;4.57;100.00;101350.41;5003846;28;20034;-77
2022/12/18 00:29:53;;;;;;;19.92;14.30;;;;;;;4.70;100.00;101356.97;5000519;28;21705;-76
2022/12/18 00:32:18;;;;;;;24.05;14.45;;;;;;;5.03;100.00;101435.38;4996887;28;20928;-76
2022/12/18 00:34:43;;;;;;;22.20;14.13;;;;;;;4.92;100.00;101408.09;4989445;28;20466;-76
2022/12/18 00:37:09;;;;;;;21.95;14.50;;;;;;;5.33;100.00;101463.44;4984609;28;20046;-74
2022/12/18 00:39:35;;;;;;;18.73;11.38;;;;;;;4.63;100.00;101324.63;4984474;28;20054;-76
2022/12/18 00:44:44;;;;;;;24.75;13.75;;;;;;;5.18;100.00;101467.22;4986281;28;20053;-77
2022/12/18 00:47:10;;;;;;;23.42;14.25;;;;;;;5.31;100.00;101485.91;4977478;28;20042;-78
2022/12/18 00:49:35;;;;;;;26.60;14.32;;;;;;;4.12;100.00;101303.56;4994526;28;20046;-79
2022/12/18 00:52:00;;;;;;;21.27;13.48;;;;;;;5.31;100.00;101478.97;5002902;28;20042;-77
2022/12/18 00:54:26;;;;;;;20.80;13.05;;;;;;;5.06;100.00;101439.00;4998527;28;20042;-77
2022/12/18 00:56:51;;;;;;;21.92;13.15;;;;;;;4.39;100.00;101346.22;4975114;28;20169;-77
2022/12/18 00:59:18;;;;;;;27.17;14.73;;;;;;;5.18;100.00;101485.44;4983055;28;20043;-76
2022/12/18 01:01:45;;;;;;;27.15;14.50;;;;;;;5.20;100.00;101488.09;4993105;28;20218;-76
2022/12/18 01:04:11;;;;;;;23.10;13.25;;;;;;;5.16;100.00;101494.88;5002707;28;20090;-76
2022/12/18 01:06:36;;;;;;;26.20;15.15;;;;;;;4.29;100.00;101340.63;4987629;28;20069;-76
2022/12/18 01:09:03;;;;;;;22.58;15.70;;;;;;;4.99;100.00;101472.53;5003063;28;20038;-75
2022/12/18 01:11:28;;;;;;;26.80;15.40;;;;;;;5.15;100.00;101500.00;5001189;28;20236;-76
2022/12/18 01:13:54;;;;;;;24.25;13.55;;;;;;;5.23;100.00;101485.59;4999684;28;20556;-76
2022/12/18 01:16:20;;;;;;;30.88;15.50;;;;;;;4.69;100.00;101493.84;4993417;28;20039;-76
2022/12/18 01:18:46;;;;;;;27.02;15.02;;;;;;;4.91;100.00;101490.41;4981829;28;20139;-76
2022/12/18 01:21:15;;;;;;;28.67;15.07;;;;;;;4.99;100.00;101515.03;4985941;28;20145;-76
2022/12/18 01:23:51;;;;;;;24.08;14.95;;;;;;;5.00;100.00;101488.19;4986685;28;20034;-76
2022/12/18 01:26:19;;;;;;;26.30;14.30;;;;;;;4.96;100.00;101520.09;5000801;28;20060;-76
2022/12/18 01:28:44;;;;;;;24.90;16.83;;;;;;;4.08;100.00;101393.44;4993339;28;20132;-78
2022/12/18 01:31:27;;;;;;;23.98;12.80;;;;;;;3.87;100.00;101384.75;4987850;28;20113;-78
2022/12/18 01:33:54;;;;;;;25.00;13.90;;;;;;;3.75;100.00;101378.22;4990742;28;20050;-76
2022/12/18 01:36:28;;;;;;;29.08;15.30;;;;;;;4.62;100.00;101512.63;4997469;28;20042;-77
2022/12/18 01:38:54;;;;;;;31.98;15.90;;;;;;;3.92;100.00;101381.53;4988953;28;20506;-77
2022/12/18 01:41:23;;;;;;;25.08;15.55;;;;;;;4.14;100.00;101423.97;5000993;28;20050;-77
2022/12/18 01:43:48;;;;;;;26.50;16.05;;;;;;;4.60;100.00;101556.75;4990403;28;20053;-77
2022/12/18 01:46:14;;;;;;;26.33;16.75;;;;;;;4.53;100.00;101509.63;4985853;28;20050;-78
2022/12/18 01:48:43;;;;;;;28.35;15.75;;;;;;;4.62;100.00;101521.31;4989259;28;20060;-77
2022/12/18 01:51:10;;;;;;;28.30;16.98;;;;;;;4.29;100.00;101551.06;5001194;28;20123;-79
2022/12/18 01:53:38;;;;;;;26.70;15.05;;;;;;;4.48;100.00;101557.94;4988929;28;20050;-77
2022/12/18 01:56:04;;;;;;;34.70;16.15;;;;;;;3.50;100.00;101416.88;4962058;28;20054;-75
2022/12/18 01:58:45;;;;;;;24.48;13.77;;;;;;;3.57;100.00;101418.94;4974023;28;20513;-75
2022/12/18 02:01:11;;;;;;;26.60;15.95;;;;;;;3.66;100.00;101424.53;4986070;28;20053;-75
2022/12/18 02:03:36;;;;;;;27.85;15.45;;;;;;;4.18;100.00;101533.25;4984367;28;20062;-76
2022/12/18 02:06:19;;;;;;;27.88;17.63;;;;;;;4.40;100.00;101555.91;4983169;28;20117;-76
2022/12/18 02:08:53;;;;;;;34.55;21.02;;;;;;;4.61;100.00;101570.63;4960856;28;20054;-76
2022/12/18 02:11:46;;;;;;;30.85;17.33;;;;;;;4.64;100.00;101578.56;4964168;28;20051;-78
2022/12/18 02:14:33;;;;;;;34.58;18.17;;;;;;;4.68;100.00;101587.38;4981593;28;20046;-76
2022/12/18 02:17:04;;;;;;;28.65;17.83;;;;;;;4.68;100.00;101596.06;4982220;28;20054;-76
2022/12/18 02:19:45;;;;;;;31.73;15.93;;;;;;;4.73;100.00;101601.44;4987272;28;20046;-75
2022/12/18 02:22:25;;;;;;;30.63;18.20;;;;;;;4.78;100.00;101605.16;4991587;28;20050;-75
2022/12/18 02:25:12;;;;;;;31.33;15.52;;;;;;;4.37;100.00;101570.44;4966922;28;20181;-76
2022/12/18 02:27:40;;;;;;;32.85;16.92;;;;;;;4.65;100.00;101615.00;4967003;28;20574;-77
2022/12/18 02:30:08;;;;;;;33.78;16.73;;;;;;;3.74;100.00;101467.25;4965894;28;20042;-78
2022/12/18 02:32:47;;;;;;;28.95;17.40;;;;;;;4.20;100.00;101572.31;4984614;28;20058;-78
2022/12/18 02:35:17;;;;;;;35.85;18.02;;;;;;;3.96;100.00;101522.78;4964792;28;20047;-75
2022/12/18 02:37:45;;;;;;;32.50;18.20;;;;;;;3.63;100.00;101428.69;4969818;28;20073;-77
2022/12/18 02:40:13;;;;;;;35.88;22.60;;;;;;;3.76;100.00;101469.94;4972884;28;20133;-76
2022/12/18 02:42:39;;;;;;;37.13;18.45;;;;;;;4.51;100.00;101625.63;4979482;28;20141;-76
2022/12/18 02:45:05;;;;;;;28.85;17.75;;;;;;;4.07;100.00;101580.38;4982738;28;20046;-76
2022/12/18 02:47:34;;;;;;;33.05;17.85;;;;;;;3.55;100.00;101480.25;4971718;28;20090;-76
2022/12/18 02:50:21;;;;;;;38.67;19.83;;;;;;;4.36;100.00;101637.13;4962103;28;20066;-77
2022/12/18 02:53:16;;;;;;;34.08;17.45;;;;;;;4.51;100.00;101652.50;4969705;28;20061;-76
2022/12/18 02:55:54;;;;;;;29.80;18.60;;;;;;;4.50;100.00;101653.34;4964493;28;20042;-77
2022/12/18 02:58:35;;;;;;;29.48;17.13;;;;;;;4.47;100.00;101644.50;4979985;28;20121;-78
2022/12/18 03:01:13;;;;;;;36.35;20.65;;;;;;;3.64;100.00;101523.91;4983324;28;20704;-78
2022/12/18 03:03:46;;;;;;;34.58;19.08;;;;;;;3.96;100.00;101590.28;4985508;28;20772;-77
2022/12/18 03:06:37;;;;;;;41.03;18.90;;;;;;;4.35;100.00;101663.03;4982385;28;20034;-78
2022/12/18 03:09:09;;;;;;;37.97;20.88;;;;;;;3.63;100.00;101542.88;4980804;28;20120;-78
2022/12/18 03:14:27;;;;;;;37.45;19.80;;;;;;;4.44;100.00;101694.63;4982852;28;20504;-78
2022/12/18 03:16:57;;;;;;;34.35;18.10;;;;;;;3.59;100.00;101560.91;4997064;28;20045;-78
2022/12/18 03:19:27;;;;;;;33.88;19.83;;;;;;;4.42;100.00;101709.25;5000377;28;20052;-79
2022/12/18 03:21:56;;;;;;;47.92;20.90;;;;;;;3.57;100.00;101585.88;5004312;28;20104;-77
2022/12/18 03:24:24;;;;;;;37.90;18.88;;;;;;;3.65;100.00;101585.34;4999462;28;20036;-76
2022/12/18 03:26:54;;;;;;;32.22;19.52;;;;;;;4.29;100.00;101706.94;5002364;28;20044;-75
2022/12/18 03:29:37;;;;;;;36.08;21.92;;;;;;;4.30;100.00;101721.69;5001668;28;20042;-76
2022/12/18 03:32:18;;;;;;;35.77;18.90;;;;;;;3.67;100.00;101618.34;5005517;28;20060;-76
2022/12/18 03:34:48;;;;;;;33.38;20.98;;;;;;;4.14;100.00;101691.50;5002139;28;20057;-76
2022/12/18 03:37:14;;;;;;;37.75;22.95;;;;;;;4.22;100.00;101730.03;5005099;28;20568;-76
2022/12/18 03:39:39;;;;;;;39.72;20.08;;;;;;;3.50;100.00;101588.13;5002392;28;20060;-76
2022/12/18 03:42:15;;;;;;;39.78;22.45;;;;;;;4.01;100.00;101670.16;5000825;28;22028;-76
2022/12/18 03:44:43;;;;;;;33.05;18.02;;;;;;;4.40;100.00;101744.69;4984100;28;20078;-76
2022/12/18 03:47:23;;;;;;;41.42;23.02;;;;;;;4.33;100.00;101733.13;5001671;28;20053;-77
2022/12/18 03:50:02;;;;;;;42.42;20.40;;;;;;;4.25;100.00;101737.06;5002595;28;20065;-77
2022/12/18 03:52:37;;;;;;;44.17;21.55;;;;;;;3.99;100.00;101748.81;5004641;28;20054;-78
2022/12/18 03:55:05;;;;;;;34.00;23.42;;;;;;;4.07;100.00;101729.28;5001122;28;20050;-79
2022/12/18 03:57:32;;;;;;;36.65;21.33;;;;;;;3.45;100.00;101615.56;4998180;28;20058;-79
2022/12/18 04:00:03;;;;;;;35.20;22.27;;;;;;;4.25;100.00;101770.84;5005617;28;20026;-79
2022/12/18 04:02:31;;;;;;;40.10;22.67;;;;;;;4.13;100.00;101752.97;5001806;28;20050;-78
2022/12/18 04:05:00;;;;;;;41.17;21.25;;;;;;;3.38;100.00;101619.56;5003942;28;20046;-75
2022/12/18 04:07:27;;;;;;;34.92;21.75;;;;;;;4.27;100.00;101777.00;5002239;28;20134;-76
2022/12/18 04:09:56;;;;;;;38.88;21.00;;;;;;;3.97;100.00;101730.56;4998770;28;20045;-76
2022/12/18 04:12:25;;;;;;;42.15;24.25;;;;;;;3.80;100.00;101710.69;5002146;28;20044;-75
2022/12/18 04:14:50;;;;;;;50.95;22.15;;;;;;;4.25;100.00;101795.94;5000023;28;20038;-77
2022/12/18 04:17:16;;;;;;;32.60;23.60;;;;;;;3.22;100.00;101659.41;4982669;28;20792;-77
2022/12/18 04:19:41;;;;;;;45.22;20.92;;;;;;;3.78;100.00;101803.19;5001816;28;20046;-77
2022/12/18 04:22:10;;;;;;;43.70;22.50;;;;;;;3.87;100.00;101802.75;5000409;28;20038;-76
2022/12/18 04:24:36;;;;;;;37.42;21.40;;;;;;;3.27;100.00;101667.41;5000272;28;20038;-77
2022/12/18 04:27:01;;;;;;;42.30;24.42;;;;;;;4.19;100.00;101827.69;5004663;28;20444;-77
2022/12/18 04:29:28;;;;;;;42.92;24.55;;;;;;;4.02;100.00;101813.88;5000668;28;20065;-76
2022/12/18 04:31:54;;;;;;;45.47;24.73;;;;;;;3.03;100.00;101685.25;5001179;28;20054;-76
2022/12/18 04:34:19;;;;;;;37.42;21.27;;;;;;;3.25;100.00;101707.94;4993472;28;20407;-77
2022/12/18 04:36:45;;;;;;;42.42;22.13;;;;;;;4.05;100.00;101837.44;5000343;28;20092;-77
2022/12/18 04:39:10;;;;;;;51.20;24.10;;;;;;;3.77;100.00;101812.69;5000240;28;20037;-77
2022/12/18 04:41:36;;;;;;;37.08;20.85;;;;;;;3.14;100.00;101712.63;5001504;28;20040;-77
2022/12/18 04:44:01;;;;;;;43.03;23.45;;;;;;;3.97;100.00;101863.00;4999003;28;20848;-76
2022/12/18 04:46:27;;;;;;;39.17;21.83;;;;;;;2.78;100.00;101717.66;4981968;28;20053;-77
2022/12/18 04:48:52;;;;;;;43.13;23.80;;;;;;;3.80;100.00;101874.25;4985415;28;20057;-77
2022/12/18 04:51:18;;;;;;;37.55;21.88;;;;;;;3.69;100.00;101878.88;5001078;28;20095;-76
2022/12/18 04:53:43;;;;;;;52.35;22.02;;;;;;;3.48;100.00;101885.56;5003912;28;20132;-77
2022/12/18 04:56:11;;;;;;;40.97;20.95;;;;;;;3.19;100.00;101834.75;4997894;28;20053;-77
2022/12/18 04:58:39;;;;;;;38.97;20.90;;;;;;;3.38;100.00;101847.84;4989057;28;20060;-75
2022/12/18 05:01:05;;;;;;;45.95;22.45;;;;;;;2.80;100.00;101752.31;4985710;28;20050;-76
2022/12/18 05:03:31;;;;;;;35.78;19.60;;;;;;;2.62;100.00;101739.28;4999817;28;20053;-76
2022/12/18 05:05:57;;;;;;;40.65;23.25;;;;;;;3.08;100.00;101832.44;4983559;28;20149;-75
2022/12/18 05:08:22;;;;;;;44.78;22.40;;;;;;;3.16;100.00;101888.22;4983096;28;20089;-75
2022/12/18 05:10:48;;;;;;;37.40;22.67;;;;;;;2.38;100.00;101744.03;4993684;28;20054;-76
2022/12/18 05:13:13;;;;;;;40.83;21.20;;;;;;;2.52;100.00;101802.66;4992452;28;20053;-75
2022/12/18 05:15:39;;;;;;;36.92;23.33;;;;;;;2.92;100.00;101873.91;4987481;28;20046;-75
2022/12/18 05:18:04;;;;;;;39.08;22.02;;;;;;;2.98;100.00;101899.31;5000172;28;20485;-75
2022/12/18 05:20:30;;;;;;;50.88;23.63;;;;;;;3.28;100.00;101926.03;4980906;28;20051;-76
2022/12/18 05:22:56;;;;;;;43.50;22.52;;;;;;;3.48;100.00;101906.31;4982311;28;20129;-75
2022/12/18 05:25:22;;;;;;;40.33;23.80;;;;;;;2.95;100.00;101801.53;4984401;28;20050;-76
2022/12/18 05:27:48;;;;;;;39.10;21.02;;;;;;;2.87;100.00;101824.41;4986680;28;20070;-75
2022/12/18 05:30:15;;;;;;;50.78;27.13;;;;;;;3.63;100.00;101950.34;4994808;28;20905;-75
2022/12/18 05:32:41;;;;;;;44.78;22.27;;;;;;;3.55;100.00;101939.56;4987049;28;20062;-75
2022/12/18 05:35:08;;;;;;;50.80;24.88;;;;;;;3.15;100.00;101828.50;4983427;28;20096;-78
2022/12/18 05:37:33;;;;;;;46.00;24.20;;;;;;;3.21;100.00;101831.41;4995031;28;20049;-76
2022/12/18 05:39:59;;;;;;;40.05;21.08;;;;;;;3.30;100.00;101841.38;5000103;28;20403;-74
2022/12/18 05:42:24;;;;;;;49.67;22.65;;;;;;;3.95;100.00;101945.13;4999512;28;20402;-76
2022/12/18 05:44:50;;;;;;;42.03;23.85;;;;;;;3.71;100.00;101891.94;5001114;28;20409;-75
2022/12/18 05:47:16;;;;;;;43.10;24.05;;;;;;;3.57;100.00;101857.50;5000315;28;20129;-76
2022/12/18 05:49:41;;;;;;;32.22;19.85;;;;;;;3.38;100.00;101840.06;5000650;28;20401;-74
2022/12/18 05:52:06;;;;;;;32.78;18.77;;;;;;;3.85;100.00;101929.91;5003241;28;20050;-77
2022/12/18 05:54:32;;;;;;;26.10;18.23;;;;;;;3.63;100.00;101883.78;5003539;28;20089;-76
2022/12/18 05:56:58;;;;;;;26.40;15.57;;;;;;;4.33;100.00;102002.44;5003426;28;20069;-78
2022/12/18 05:59:23;;;;;;;34.03;14.93;;;;;;;4.19;100.00;101952.38;5006210;28;20052;-78
2022/12/18 06:01:49;;;;;;;21.70;13.45;;;;;;;4.23;100.00;101955.22;5001819;28;20760;-77
2022/12/18 06:04:15;;;;;;;26.98;13.02;;;;;;;3.69;100.00;101857.22;5007378;28;20428;-79
2022/12/18 06:06:40;;;;;;;21.83;14.13;;;;;;;4.45;100.00;101995.31;5003410;28;20767;-78
2022/12/18 06:09:09;;;;;;;22.55;13.50;;;;;;;4.44;100.00;101985.69;5007746;28;20030;-78
2022/12/18 06:11:38;;;;;;;23.85;14.05;;;;;;;4.39;100.00;101989.78;4986635;28;20148;-78
2022/12/18 06:14:06;;;;;;;19.65;13.98;;;;;;;4.41;100.00;102003.75;4998485;28;20843;-77
2022/12/18 06:16:32;;;;;;;20.13;11.95;;;;;;;4.16;100.00;102004.19;5003918;28;20069;-76
2022/12/18 06:18:58;;;;;;;21.30;13.82;;;;;;;3.50;100.00;101866.66;5003176;28;20076;-77
2022/12/18 06:21:24;;;;;;;21.58;13.75;;;;;;;4.39;100.00;102018.38;4999787;28;20053;-77
2022/12/18 06:23:49;;;;;;;25.63;13.95;;;;;;;4.27;100.00;101999.56;4984689;28;20042;-76
2022/12/18 06:26:15;;;;;;;25.10;14.07;;;;;;;4.10;100.00;101981.41;5004274;28;20066;-76
2022/12/18 06:28:41;;;;;;;23.42;15.65;;;;;;;4.34;100.00;102005.13;4989950;28;20046;-77
2022/12/18 06:31:08;;;;;;;24.83;16.15;;;;;;;4.02;100.00;101935.94;4983378;28;24064;-77
2022/12/18 06:33:34;;;;;;;27.45;17.13;;;;;;;4.65;100.00;102043.06;4982024;28;20077;-77
2022/12/18 06:36:11;;;;;;;25.60;13.93;;;;;;;4.45;100.00;102031.69;4967769;28;20045;-75
2022/12/18 06:38:39;;;;;;;30.63;15.60;;;;;;;4.61;100.00;102051.53;4965802;28;20363;-75
2022/12/18 06:41:13;;;;;;;26.33;15.98;;;;;;;4.53;100.00;102050.25;4988361;28;20065;-75
2022/12/18 06:43:38;;;;;;;19.92;13.98;;;;;;;4.37;100.00;102033.88;4991930;28;20058;-77
2022/12/18 06:46:05;;;;;;;15.52;10.55;;;;;;;4.46;100.00;102076.75;4986841;28;20050;-77
2022/12/18 06:48:31;;;;;;;21.85;12.48;;;;;;;4.39;100.00;102041.75;4987269;28;20065;-77
2022/12/18 06:50:57;;;;;;;16.85;11.80;;;;;;;3.84;100.00;101947.97;5003660;28;20034;-74
2022/12/18 06:53:22;;;;;;;15.88;11.07;;;;;;;3.47;100.00;101938.28;4984648;28;20050;-76
2022/12/18 06:55:48;;;;;;;21.08;12.20;;;;;;;4.24;100.00;102078.25;4995684;28;20105;-75
2022/12/18 06:58:13;;;;;;;19.58;11.55;;;;;;;3.84;100.00;102086.50;5000658;28;20530;-74
2022/12/18 07:00:39;;;;;;;16.30;10.20;;;;;;;3.30;100.00;102087.81;5002865;28;20052;-77
2022/12/18 07:03:04;;;;;;;17.40;10.75;;;;;;;3.01;100.00;102050.75;5001492;28;20040;-76
2022/12/18 07:05:30;;;;;;;20.42;11.05;;;;;;;2.46;100.00;101970.72;4983528;28;20452;-74
2022/12/18 07:07:55;;;;;;;20.90;14.48;;;;;;;3.09;100.00;102080.63;4990371;28;20128;-76
2022/12/18 07:10:21;;;;;;;18.60;14.07;;;;;;;3.24;100.00;102116.91;4984016;28;20050;-75
2022/12/18 07:12:47;;;;;;;22.73;13.20;;;;;;;2.82;100.00;101999.53;4984084;28;20053;-80
2022/12/18 07:15:12;;;;;;;19.88;12.25;;;;;;;3.21;100.00;102126.19;4979057;28;20042;-75
2022/12/18 07:17:38;;;;;;;20.48;13.65;;;;;;;2.89;100.00;102037.97;4999191;28;20034;-79
2022/12/18 07:20:04;;;;;;;21.58;13.43;;;;;;;2.98;100.00;102003.03;5000630;28;20049;-77
2022/12/18 07:22:29;;;;;;;19.02;14.00;;;;;;;3.18;100.00;102030.94;4996936;28;20049;-78
2022/12/18 07:24:55;;;;;;;23.05;14.02;;;;;;;3.81;100.00;102149.50;5003134;28;20056;-75
2022/12/18 07:27:21;;;;;;;16.77;12.13;;;;;;;3.28;100.00;102024.59;5000390;28;20828;-77
2022/12/18 07:29:47;;;;;;;19.77;13.57;;;;;;;3.89;100.00;102154.28;5003585;28;20033;-78
2022/12/18 07:32:12;;;;;;;34.17;15.85;;;;;;;3.20;100.00;102005.09;5001867;28;20046;-79
2022/12/18 07:34:38;;;;;;;23.42;16.63;;;;;;;3.94;100.00;102125.13;5002168;28;20498;-78
2022/12/18 07:37:03;;;;;;;33.10;19.33;;;;;;;3.74;100.00;102108.44;4999632;28;20056;-78
2022/12/18 07:39:29;;;;;;;30.35;16.65;;;;;;;3.93;100.00;102164.00;5000879;28;20551;-78
2022/12/18 07:44:38;;;;;;;30.23;16.42;;;;;;;4.19;100.00;102184.53;5000902;28;20049;-76
2022/12/18 07:47:04;;;;;;;30.95;16.70;;;;;;;4.12;100.00;102169.41;5003830;28;20054;-76
2022/12/18 07:49:30;;;;;;;31.45;19.40;;;;;;;3.56;100.00;102087.59;4997377;28;20053;-75
2022/12/18 07:51:57;;;;;;;29.60;17.30;;;;;;;3.31;100.00;102074.03;4999568;28;20050;-76
2022/12/18 07:54:24;;;;;;;28.02;15.57;;;;;;;2.90;100.00;102059.59;4999757;28;20050;-74
2022/12/18 07:56:50;;;;;;;32.50;18.08;;;;;;;3.29;100.00;102068.75;5004972;28;20038;-77
2022/12/18 07:59:15;;;;;;;31.48;19.88;;;;;;;3.36;100.00;102070.88;5006731;28;20133;-79
2022/12/18 08:01:41;;;;;;;35.38;21.42;;;;;;;3.25;100.00;102071.97;4999271;28;20172;-78
2022/12/18 08:04:06;;;;;;;35.58;20.23;;;;;;;3.99;100.00;102200.69;4996120;28;20498;-75
2022/12/18 08:06:32;;;;;;;40.88;23.42;;;;;;;3.97;100.00;102223.97;4980578;28;20411;-78
2022/12/18 08:08:57;;;;;;;32.00;19.33;;;;;;;3.23;100.00;102125.50;4985786;28;20061;-77
2022/12/18 08:11:25;;;;;;;38.75;23.70;;;;;;;2.88;100.00;102123.41;4986222;28;20505;-76
2022/12/18 08:13:50;;;;;;;35.97;21.58;;;;;;;2.67;100.00;102111.00;5001389;28;20129;-76
2022/12/18 08:16:16;;;;;;;35.85;19.88;;;;;;;3.69;100.00;102246.59;5002190;28;22276;-77
2022/12/18 08:18:41;;;;;;;35.00;20.63;;;;;;;3.92;100.00;102271.28;4998458;28;20140;-76
2022/12/18 08:21:11;;;;;;;37.20;21.05;;;;;;;3.83;100.00;102243.09;5004247;28;20038;-77
2022/12/18 08:23:38;;;;;;;29.23;18.63;;;;;;;3.94;100.00;102283.53;4984062;28;20418;-75
2022/12/18 08:26:03;;;;;;;39.70;22.13;;;;;;;3.17;100.00;102145.88;5002192;28;20053;-75
2022/12/18 08:28:29;;;;;;;36.28;22.23;;;;;;;3.23;100.00;102158.28;5001478;28;20177;-76
2022/12/18 08:30:54;;;;;;;35.03;21.83;;;;;;;3.41;100.00;102257.97;5000361;28;20045;-76
2022/12/18 08:33:20;;;;;;;33.22;20.80;;;;;;;3.50;100.00;102253.31;4997725;28;20372;-75
2022/12/18 08:35:45;;;;;;;30.65;21.33;;;;;;;3.50;100.00;102262.81;5000962;28;20380;-77
2022/12/18 08:38:11;;;;;;;36.50;20.15;;;;;;;2.91;100.00;102137.47;5001900;28;20054;-76
2022/12/18 08:40:36;;;;;;;38.45;22.45;;;;;;;3.07;100.00;102154.84;4997999;28;20776;-77
2022/12/18 08:46:00;;;;;;;36.45;22.00;;;;;;;3.50;100.00;102287.06;4972471;28;20489;-77
2022/12/18 08:48:25;;;;;;;37.97;21.88;;;;;;;3.57;100.00;102236.41;5002750;28;20033;-75
2022/12/18 08:50:58;;;;;;;32.53;19.80;;;;;;;3.76;100.00;102270.38;4999982;28;20839;-75
2022/12/18 08:53:27;;;;;;;36.70;22.77;;;;;;;3.91;100.00;102261.69;4999654;28;20096;-75
2022/12/18 08:55:53;;;;;;;33.78;22.08;;;;;;;3.97;100.00;102281.13;5001201;28;20057;-78
2022/12/18 08:58:18;;;;;;;39.22;22.80;;;;;;;3.96;100.00;102281.94;5000656;28;20148;-77
2022/12/18 09:00:44;;;;;;;41.85;21.77;;;;;;;3.32;100.00;102177.00;4999798;28;20062;-75
2022/12/18 09:03:14;;;;;;;37.25;21.02;;;;;;;4.04;100.00;102276.28;4997559;28;20076;-78
2022/12/18 09:05:40;;;;;;;34.83;21.52;;;;;;;4.19;100.00;102279.72;4977791;28;20046;-79
2022/12/18 09:08:05;;;;;;;34.50;23.17;;;;;;;3.06;100.00;102124.50;5000348;28;20099;-78
2022/12/18 09:10:31;;;;;;;47.25;23.05;;;;;;;3.92;100.00;102233.22;4984005;28;20050;-76
2022/12/18 09:12:57;;;;;;;33.85;21.40;;;;;;;3.63;100.00;102156.31;4968994;28;20163;-75
2022/12/18 09:15:22;;;;;;;39.58;21.55;;;;;;;4.18;100.00;102252.84;4993727;28;20541;-76
2022/12/18 09:17:49;;;;;;;35.65;21.67;;;;;;;2.99;100.00;102122.34;4997012;28;20414;-77
2022/12/18 09:20:15;;;;;;;36.83;20.33;;;;;;;3.33;100.00;102122.59;4973462;28;20059;-78
2022/12/18 09:22:41;;;;;;;34.80;21.17;;;;;;;3.95;100.00;102207.41;4989171;28;20050;-76
2022/12/18 09:25:09;;;;;;;30.23;19.30;;;;;;;4.17;100.00;102245.00;5003649;28;20038;-81
2022/12/18 09:27:35;;;;;;;28.75;19.20;;;;;;;3.91;100.00;102214.94;5000129;28;20108;-78
2022/12/18 09:30:01;;;;;;;33.13;17.45;;;;;;;3.29;100.00;102083.44;5003804;28;20030;-79
2022/12/18 09:32:27;;;;;;;40.67;15.02;;;;;;;4.28;100.00;102246.47;5002459;28;20052;-81
2022/12/18 09:34:52;;;;;;;22.05;13.88;;;;;;;4.33;100.00;102245.03;5004938;28;20050;-83
2022/12/18 09:37:17;;;;;;;26.35;13.45;;;;;;;3.55;100.00;102110.84;5003125;28;20062;-79
2022/12/18 09:39:43;;;;;;;29.63;13.30;;;;;;;3.78;100.00;102153.66;5003426;28;20088;-80
2022/12/18 09:42:20;;;;;;;22.65;13.68;;;;;;;3.50;100.00;102084.63;5003929;28;20088;-76
2022/12/18 09:44:53;;;;;;;21.77;12.30;;;;;;;4.38;100.00;102221.91;5003400;28;20050;-80
2022/12/18 09:47:28;;;;;;;21.83;13.75;;;;;;;4.34;100.00;102226.03;4988141;28;20048;-80
2022/12/18 09:50:00;;;;;;;23.15;14.18;;;;;;;3.52;100.00;102103.78;5001585;28;20100;-79
2022/12/18 09:52:44;;;;;;;19.63;13.37;;;;;;;3.47;100.00;102201.25;5004938;28;20044;-83
2022/12/18 09:55:30;;;;;;;22.90;14.63;;;;;;;3.97;100.00;102218.78;5003578;28;20038;-81
2022/12/18 09:58:04;;;;;;;22.35;13.25;;;;;;;3.96;100.00;102239.50;5000963;28;20089;-79
2022/12/18 10:00:30;;;;;;;24.40;14.35;;;;;;;3.48;100.00;102196.94;4996976;28;23823;-81
2022/12/18 10:03:03;;;;;;;26.27;14.00;;;;;;;3.50;100.00;102222.16;4997195;28;20030;-80
2022/12/18 10:05:28;;;;;;;;;;;;;;;3.73;100.00;102239.06;4993127;28;20069;-79
2022/12/18 10:08:04;;;;;;;23.35;12.82;;;;;;;3.19;100.00;102145.97;5004419;28;19964;-78
2022/12/18 10:10:49;;;;;;;23.02;13.77;;;;;;;3.78;100.00;102245.41;5001778;28;20108;-80
2022/12/18 10:13:31;;;;;;;25.98;14.10;;;;;;;3.29;100.00;102193.28;5000416;28;20135;-77
2022/12/18 10:16:32;;;;;;;30.40;17.17;;;;;;;3.61;100.00;102240.97;5001066;28;20512;-81
2022/12/18 10:19:18;;;;;;;27.15;15.32;;;;;;;3.64;100.00;102256.72;4932121;29;20411;-85
2022/12/18 10:22:10;;;;;;;24.17;15.52;;;;;;;3.45;100.00;102252.16;4981606;28;20043;-80
2022/12/18 10:24:45;;;;;;;33.50;16.35;;;;;;;3.63;100.00;102259.22;4984635;28;20054;-83
2022/12/18 10:27:24;;;;;;;29.67;16.58;;;;;;;2.07;100.00;102161.75;4993231;28;20041;-78
2022/12/18 10:29:50;;;;;;;38.80;19.63;;;;;;;2.42;100.00;102253.72;4985075;28;20026;-83
2022/12/18 10:32:24;;;;;;;24.92;17.35;;;;;;;2.51;100.00;102261.16;4977955;28;21550;-82
2022/12/18 10:34:53;;;;;;;32.35;17.20;;;;;;;2.60;100.00;102253.03;4989666;28;20954;-82
2022/12/18 10:37:25;;;;;;;28.38;16.60;;;;;;;2.63;100.00;102285.25;5000213;28;20054;-76
2022/12/18 10:40:13;;;;;;;24.70;15.63;;;;;;;2.16;100.00;102135.53;5001029;28;20054;-79
2022/12/18 10:42:41;;;;;;;26.27;15.25;;;;;;;2.06;100.00;102128.91;5002416;28;20050;-79
2022/12/18 10:45:19;;;;;;;30.67;19.00;;;;;;;2.21;100.00;102131.53;4983011;28;20069;-79
2022/12/18 10:47:47;;;;;;;26.83;15.52;;;;;;;2.89;100.00;102252.25;5003713;28;20060;-79
2022/12/18 10:50:33;;;;;;;32.30;16.40;;;;;;;3.06;100.00;102277.50;4996717;28;20052;-78
2022/12/18 10:53:02;;;;;;;27.70;16.05;;;;;;;2.96;100.00;102270.88;4985610;28;20066;-78
2022/12/18 10:55:44;;;;;;;25.05;14.73;;;;;;;2.81;100.00;102269.94;4958912;28;20055;-76
2022/12/18 10:58:31;;;;;;;30.75;16.98;;;;;;;2.77;100.00;102273.16;4967854;28;20046;-81
2022/12/18 11:01:17;;;;;;;35.75;19.05;;;;;;;2.32;100.00;102168.47;4974134;28;20047;-76
2022/12/18 11:03:49;;;;;;;31.05;18.35;;;;;;;2.65;100.00;102278.47;4991089;28;20126;-79
2022/12/18 11:06:18;;;;;;;27.10;16.05;;;;;;;1.80;100.00;102128.94;4981655;28;20034;-83
2022/12/18 11:08:58;;;;;;;33.10;18.88;;;;;;;2.77;100.00;102285.22;4965818;28;20134;-82
2022/12/18 11:11:24;;;;;;;36.78;17.42;;;;;;;2.91;100.00;102284.38;4952891;28;20084;-83
2022/12/18 11:14:16;;;;;;;30.92;18.55;;;;;;;2.72;100.00;102292.72;4965421;28;20156;-82
2022/12/18 11:16:48;;;;;;;33.83;17.58;;;;;;;2.86;100.00;102299.63;4962756;28;20109;-80
2022/12/18 11:19:37;;;;;;;33.78;18.55;;;;;;;2.42;100.00;102260.59;4964885;28;20093;-82
2022/12/18 11:22:21;;;;;;;32.60;18.48;;;;;;;2.87;100.00;102306.59;4963248;28;20542;-85
2022/12/18 11:25:01;;;;;;;28.65;19.60;;;;;;;2.79;100.00;102301.75;4963494;28;20051;-81
2022/12/18 11:27:29;;;;;;;29.42;17.77;;;;;;;2.58;100.00;102296.13;4962025;28;20114;-80
2022/12/18 11:30:25;;;;;;;35.17;17.55;;;;;;;2.57;100.00;102234.72;4964067;28;20244;-80